createdAt,value
2023-02-27T00:03:06.455Z,1.40
2023-02-27T00:09:08.527Z,2.10
2023-02-27T00:15:16.367Z,2.50
2023-02-27T00:21:18.516Z,1.60
2023-02-27T00:27:20.613Z,1.58
2023-02-27T00:33:22.786Z,1.20
2023-02-27T00:39:24.597Z,1.25
2023-02-27T00:45:26.399Z,1.83
2023-02-27T00:51:30.410Z,1.13
2023-02-27T00:57:32.936Z,1.30
2023-02-27T01:03:34.808Z,1.50
2023-02-27T01:09:36.879Z,1.20
2023-02-27T01:15:38.880Z,1.38
2023-02-27T01:21:42.140Z,2.33
2023-02-27T01:27:44.103Z,1.80
2023-02-27T01:33:45.943Z,1.98
2023-02-27T01:39:47.823Z,2.20
2023-02-27T01:45:51.254Z,1.88
2023-02-27T01:52:07.636Z,1.27
2023-02-27T01:58:16.748Z,1.85
2023-02-27T02:04:34.278Z,1.50
2023-02-27T02:16:59.908Z,1.38
2023-02-27T02:23:08.181Z,1.77
2023-02-27T02:29:35.249Z,1.80
2023-02-27T02:36:14.920Z,1.60
2023-02-27T02:42:34.609Z,1.60
2023-02-27T02:48:47.007Z,1.67
2023-02-27T02:55:03.934Z,1.90
2023-02-27T03:01:19.044Z,1.90
2023-02-27T03:07:52.357Z,2.17
2023-02-27T03:14:06.943Z,1.77
2023-02-27T03:26:53.929Z,2.03
2023-02-27T03:33:11.374Z,1.77
2023-02-27T03:39:31.994Z,2.20
2023-02-27T03:45:56.707Z,2.10
2023-02-27T03:51:58.773Z,2.67
2023-02-27T03:58:00.882Z,2.40
2023-02-27T04:04:12.443Z,2.33
2023-02-27T04:10:51.790Z,2.67
2023-02-27T04:17:21.630Z,2.22
2023-02-27T04:23:29.032Z,2.30
2023-02-27T04:29:42.674Z,3.65
2023-02-27T04:35:52.840Z,2.40
2023-02-27T04:42:06.979Z,2.38
2023-02-27T04:48:22.217Z,2.30
2023-02-27T04:54:41.196Z,2.63
2023-02-27T05:00:47.648Z,2.60
2023-02-27T05:13:26.189Z,4.00
2023-02-27T05:19:28.011Z,5.33
2023-02-27T05:25:35.240Z,5.00
2023-02-27T05:31:58.831Z,4.63
2023-02-27T05:38:10.005Z,3.75
2023-02-27T05:44:30.048Z,3.30
2023-02-27T05:50:35.996Z,3.05
2023-02-27T05:56:40.335Z,3.33
2023-02-27T06:02:43.616Z,3.42
2023-02-27T06:08:47.173Z,2.90
2023-02-27T06:14:48.909Z,4.50
2023-02-27T06:20:50.702Z,4.80
2023-02-27T06:26:52.520Z,4.40
2023-02-27T06:32:54.804Z,4.13
2023-02-27T06:38:57.972Z,3.97
2023-02-27T06:44:59.780Z,4.35
2023-02-27T06:51:01.548Z,3.33
2023-02-27T06:57:03.379Z,3.78
2023-02-27T07:03:05.123Z,3.70
2023-02-27T07:09:07.294Z,5.18
2023-02-27T07:15:09.702Z,7.38
2023-02-27T07:21:11.629Z,10.27
2023-02-27T07:27:13.400Z,9.60
2023-02-27T07:33:15.262Z,8.25
2023-02-27T07:39:17.385Z,8.93
2023-02-27T07:45:19.162Z,10.55
2023-02-27T07:51:21.210Z,9.20
2023-02-27T07:57:23.046Z,10.45
2023-02-27T08:03:27.867Z,10.60
2023-02-27T08:09:30.775Z,11.05
2023-02-27T08:15:32.758Z,10.10
2023-02-27T08:21:34.517Z,9.07
2023-02-27T08:27:37.152Z,9.75
2023-02-27T08:33:38.947Z,9.45
2023-02-27T08:39:40.785Z,9.05
2023-02-27T08:45:43.064Z,9.45
2023-02-27T08:51:44.936Z,8.98
2023-02-27T08:57:46.911Z,7.95
2023-02-27T09:03:48.752Z,6.95
2023-02-27T09:09:53.563Z,6.75
2023-02-27T09:15:56.089Z,6.20
2023-02-27T09:21:58.052Z,5.72
2023-02-27T09:28:03.042Z,6.13
2023-02-27T09:34:05.021Z,5.45
2023-02-27T09:40:07.860Z,5.13
2023-02-27T09:46:17.050Z,4.78
2023-02-27T09:52:19.038Z,5.90
2023-02-27T09:58:40.583Z,4.63
2023-02-27T10:05:13.574Z,4.65
2023-02-27T10:11:20.258Z,4.50
2023-02-27T10:17:27.871Z,5.37
2023-02-27T10:23:45.448Z,4.40
2023-02-27T10:29:47.437Z,4.05
2023-02-27T10:35:52.089Z,4.65
2023-02-27T10:41:55.864Z,4.47
2023-02-27T10:48:01.595Z,3.95
2023-02-27T10:54:18.700Z,4.18
2023-02-27T11:00:40.879Z,3.77
2023-02-27T11:06:43.492Z,3.13
2023-02-27T11:13:04.342Z,2.80
2023-02-27T11:19:31.061Z,2.30
2023-02-27T11:25:34.253Z,2.40
2023-02-27T11:31:40.233Z,1.73
2023-02-27T11:37:43.116Z,1.70
2023-02-27T11:43:52.052Z,1.98
2023-02-27T11:50:08.853Z,1.90
2023-02-27T11:56:16.772Z,1.23
2023-02-27T12:02:47.531Z,1.60
2023-02-27T12:08:59.082Z,1.42
2023-02-27T12:15:05.093Z,1.40
2023-02-27T12:21:30.809Z,4.63
2023-02-27T12:27:54.321Z,1.77
2023-02-27T12:34:21.221Z,1.73
2023-02-27T12:40:31.254Z,1.65
2023-02-27T12:46:56.662Z,1.58
2023-02-27T12:53:30.833Z,1.50
2023-02-27T12:59:59.124Z,1.40
2023-02-27T13:06:12.700Z,1.70
2023-02-27T13:12:41.670Z,1.50
2023-02-27T13:19:06.012Z,1.77
2023-02-27T13:25:14.426Z,1.70
2023-02-27T13:31:53.436Z,1.75
2023-02-27T13:38:02.449Z,1.60
2023-02-27T13:44:19.221Z,1.58
2023-02-27T13:50:21.343Z,1.60
2023-02-27T13:56:24.000Z,1.90
2023-02-27T14:02:30.896Z,1.80
2023-02-27T14:08:50.709Z,1.50
2023-02-27T14:14:53.337Z,3.53
2023-02-27T14:20:55.481Z,2.20
2023-02-27T14:26:57.930Z,1.73
2023-02-27T14:33:40.361Z,1.67
2023-02-27T14:39:43.425Z,2.67
2023-02-27T14:45:45.477Z,1.85
2023-02-27T14:51:48.181Z,1.60
2023-02-27T14:58:07.259Z,2.20
2023-02-27T15:04:18.122Z,1.67
2023-02-27T15:10:33.373Z,1.50
2023-02-27T15:16:40.673Z,1.40
2023-02-27T15:22:42.621Z,1.75
2023-02-27T15:28:48.211Z,3.80
2023-02-27T15:34:50.216Z,1.77
2023-02-27T15:40:52.450Z,1.75
2023-02-27T15:46:55.153Z,8.20
2023-02-27T15:53:12.340Z,4.82
2023-02-27T15:59:17.872Z,4.33
2023-02-27T16:05:41.648Z,1.80
2023-02-27T16:11:43.503Z,3.20
2023-02-27T16:18:07.715Z,3.40
2023-02-27T16:24:21.206Z,2.33
2023-02-27T16:30:23.132Z,3.10
2023-02-27T16:36:31.177Z,2.50
2023-02-27T16:42:33.177Z,3.75
2023-02-27T16:48:35.520Z,2.70
2023-02-27T16:54:37.435Z,2.97
2023-02-27T17:00:44.594Z,1.90
2023-02-27T17:06:46.662Z,2.38
2023-02-27T17:12:51.810Z,1.80
2023-02-27T17:18:54.005Z,2.58
2023-02-27T17:24:56.539Z,1.65
2023-02-27T17:30:59.716Z,1.52
2023-02-27T17:37:02.933Z,1.77
2023-02-27T17:43:05.265Z,1.60
2023-02-27T17:49:07.641Z,1.90
2023-02-27T17:55:10.300Z,1.60
2023-02-27T18:01:17.102Z,1.75
2023-02-27T18:07:19.230Z,1.75
2023-02-27T18:13:25.487Z,2.70
2023-02-27T18:19:28.062Z,2.00
2023-02-27T18:25:30.155Z,2.38
2023-02-27T18:31:38.520Z,2.10
2023-02-27T18:37:40.862Z,1.88
2023-02-27T18:43:44.162Z,2.30
2023-02-27T18:49:46.289Z,2.40
2023-02-27T18:55:48.208Z,1.92
2023-02-27T19:01:50.398Z,2.25
2023-02-27T19:07:52.681Z,2.20
2023-02-27T19:13:56.588Z,1.85
2023-02-27T19:19:58.361Z,2.03
2023-02-27T19:26:01.007Z,2.25
2023-02-27T19:32:03.394Z,1.85
2023-02-27T19:38:07.296Z,1.90
2023-02-27T19:44:12.483Z,2.03
2023-02-27T19:50:17.509Z,2.25
2023-02-27T19:56:25.020Z,1.80
2023-02-27T20:02:29.991Z,2.00
2023-02-27T20:08:36.300Z,1.60
2023-02-27T20:14:38.246Z,1.63
2023-02-27T20:20:40.682Z,1.67
2023-02-27T20:26:53.866Z,2.00
2023-02-27T20:32:58.729Z,2.20
2023-02-27T20:39:00.951Z,1.70
2023-02-27T20:45:02.832Z,1.60
2023-02-27T20:51:09.907Z,1.80
2023-02-27T21:03:13.434Z,1.90
2023-02-27T21:09:15.511Z,1.60
2023-02-27T21:15:17.298Z,1.67
2023-02-27T21:21:24.983Z,1.48
2023-02-27T21:27:27.134Z,1.70
2023-02-27T21:33:28.855Z,1.30
2023-02-27T21:39:30.626Z,2.15
2023-02-27T21:45:32.374Z,2.15
2023-02-27T21:51:40.515Z,2.20
2023-02-27T21:57:43.153Z,2.17
2023-02-27T22:03:46.857Z,2.10
2023-02-27T22:09:49.828Z,2.10
2023-02-27T22:15:52.074Z,2.50
2023-02-27T22:21:53.894Z,2.38
2023-02-27T22:27:55.650Z,2.40
2023-02-27T22:34:01.526Z,2.47
2023-02-27T22:40:04.197Z,2.40
2023-02-27T22:46:07.447Z,2.42
2023-02-27T22:52:09.304Z,2.60
2023-02-27T22:58:11.084Z,2.80
2023-02-27T23:04:12.888Z,2.78
2023-02-27T23:10:14.844Z,2.65
2023-02-27T23:16:17.534Z,2.47
2023-02-27T23:22:22.008Z,2.50
2023-02-27T23:28:23.757Z,2.58
2023-02-27T23:34:25.499Z,2.00
2023-02-27T23:40:27.864Z,1.88
2023-02-27T23:46:30.449Z,1.90
2023-02-27T23:52:32.460Z,2.10
2023-02-27T23:58:34.224Z,2.15
